sensor_id;sensor_type;location;lat;lon;timestamp;temperature;humidity
66586;SHT30;53444;45.822;16.092;2022-09-20T00:00:35;10.71;86.42
66586;SHT30;53444;45.822;16.092;2022-09-20T00:03:02;10.47;87.13
66586;SHT30;53444;45.822;16.092;2022-09-20T00:05:28;10.53;87.24
66586;SHT30;53444;45.822;16.092;2022-09-20T00:07:55;10.42;87.30
66586;SHT30;53444;45.822;16.092;2022-09-20T00:10:23;10.35;87.62
66586;SHT30;53444;45.822;16.092;2022-09-20T00:12:51;10.43;87.51
66586;SHT30;53444;45.822;16.092;2022-09-20T00:15:18;10.43;87.61
66586;SHT30;53444;45.822;16.092;2022-09-20T00:17:44;10.47;87.41
66586;SHT30;53444;45.822;16.092;2022-09-20T00:20:11;10.43;87.32
66586;SHT30;53444;45.822;16.092;2022-09-20T00:22:38;10.50;86.94
66586;SHT30;53444;45.822;16.092;2022-09-20T00:25:08;10.43;87.27
66586;SHT30;53444;45.822;16.092;2022-09-20T00:27:36;10.45;86.99
66586;SHT30;53444;45.822;16.092;2022-09-20T00:30:03;10.23;87.36
66586;SHT30;53444;45.822;16.092;2022-09-20T00:32:33;10.10;87.75
66586;SHT30;53444;45.822;16.092;2022-09-20T00:34:59;10.13;87.62
66586;SHT30;53444;45.822;16.092;2022-09-20T00:37:36;10.16;87.55
66586;SHT30;53444;45.822;16.092;2022-09-20T00:40:05;10.10;87.50
66586;SHT30;53444;45.822;16.092;2022-09-20T00:42:32;10.02;87.42
66586;SHT30;53444;45.822;16.092;2022-09-20T00:45:01;9.84;87.80
66586;SHT30;53444;45.822;16.092;2022-09-20T00:47:34;9.70;88.59
66586;SHT30;53444;45.822;16.092;2022-09-20T00:50:13;9.65;88.67
66586;SHT30;53444;45.822;16.092;2022-09-20T00:52:44;9.81;88.11
66586;SHT30;53444;45.822;16.092;2022-09-20T00:55:14;9.79;88.04
66586;SHT30;53444;45.822;16.092;2022-09-20T00:57:42;9.81;88.40
66586;SHT30;53444;45.822;16.092;2022-09-20T01:00:12;9.82;87.81
66586;SHT30;53444;45.822;16.092;2022-09-20T01:02:41;9.84;88.06
66586;SHT30;53444;45.822;16.092;2022-09-20T01:05:09;9.84;87.79
66586;SHT30;53444;45.822;16.092;2022-09-20T01:07:36;9.78;87.77
66586;SHT30;53444;45.822;16.092;2022-09-20T01:10:03;9.82;87.27
66586;SHT30;53444;45.822;16.092;2022-09-20T01:12:32;9.89;87.32
66586;SHT30;53444;45.822;16.092;2022-09-20T01:15:02;9.91;87.45
66586;SHT30;53444;45.822;16.092;2022-09-20T01:17:32;9.74;87.27
66586;SHT30;53444;45.822;16.092;2022-09-20T01:20:13;9.68;87.43
66586;SHT30;53444;45.822;16.092;2022-09-20T01:22:49;9.54;87.24
66586;SHT30;53444;45.822;16.092;2022-09-20T01:25:26;9.55;86.49
66586;SHT30;53444;45.822;16.092;2022-09-20T01:27:57;9.61;86.19
66586;SHT30;53444;45.822;16.092;2022-09-20T01:30:25;9.64;86.27
66586;SHT30;53444;45.822;16.092;2022-09-20T01:33:06;9.59;86.51
66586;SHT30;53444;45.822;16.092;2022-09-20T01:35:35;9.37;87.14
66586;SHT30;53444;45.822;16.092;2022-09-20T01:38:17;9.14;87.82
66586;SHT30;53444;45.822;16.092;2022-09-20T01:40:51;9.24;87.74
66586;SHT30;53444;45.822;16.092;2022-09-20T01:43:26;9.17;88.04
66586;SHT30;53444;45.822;16.092;2022-09-20T01:45:58;9.14;87.60
66586;SHT30;53444;45.822;16.092;2022-09-20T01:48:32;9.20;87.49
66586;SHT30;53444;45.822;16.092;2022-09-20T01:51:16;9.20;87.02
66586;SHT30;53444;45.822;16.092;2022-09-20T01:54:20;9.22;87.01
66586;SHT30;53444;45.822;16.092;2022-09-20T01:57:20;9.04;86.92
66586;SHT30;53444;45.822;16.092;2022-09-20T02:00:06;8.69;87.03
66586;SHT30;53444;45.822;16.092;2022-09-20T02:02:45;8.48;87.98
66586;SHT30;53444;45.822;16.092;2022-09-20T02:05:37;8.35;89.47
66586;SHT30;53444;45.822;16.092;2022-09-20T02:08:12;8.45;89.25
66586;SHT30;53444;45.822;16.092;2022-09-20T02:11:05;8.55;89.07
66586;SHT30;53444;45.822;16.092;2022-09-20T02:13:49;8.46;89.39
66586;SHT30;53444;45.822;16.092;2022-09-20T02:16:31;8.65;88.58
66586;SHT30;53444;45.822;16.092;2022-09-20T02:19:32;8.73;88.16
66586;SHT30;53444;45.822;16.092;2022-09-20T02:22:12;8.66;88.28
66586;SHT30;53444;45.822;16.092;2022-09-20T02:24:46;8.68;88.18
66586;SHT30;53444;45.822;16.092;2022-09-20T02:27:22;8.63;88.38
66586;SHT30;53444;45.822;16.092;2022-09-20T02:29:59;8.59;88.28
66586;SHT30;53444;45.822;16.092;2022-09-20T02:32:44;8.65;88.50
66586;SHT30;53444;45.822;16.092;2022-09-20T02:35:29;8.76;87.85
66586;SHT30;53444;45.822;16.092;2022-09-20T02:38:17;8.87;87.35
66586;SHT30;53444;45.822;16.092;2022-09-20T02:41:10;8.96;87.03
66586;SHT30;53444;45.822;16.092;2022-09-20T02:43:47;8.96;86.86
66586;SHT30;53444;45.822;16.092;2022-09-20T02:46:22;8.97;86.48
66586;SHT30;53444;45.822;16.092;2022-09-20T02:49:00;8.94;86.71
66586;SHT30;53444;45.822;16.092;2022-09-20T02:51:33;8.92;86.61
66586;SHT30;53444;45.822;16.092;2022-09-20T02:54:10;8.89;86.47
66586;SHT30;53444;45.822;16.092;2022-09-20T02:56:43;8.96;86.07
66586;SHT30;53444;45.822;16.092;2022-09-20T02:59:20;8.84;86.57
66586;SHT30;53444;45.822;16.092;2022-09-20T03:01:55;8.77;86.23
66586;SHT30;53444;45.822;16.092;2022-09-20T03:04:37;8.75;85.64
66586;SHT30;53444;45.822;16.092;2022-09-20T03:07:16;8.80;86.17
66586;SHT30;53444;45.822;16.092;2022-09-20T03:09:52;8.83;85.82
66586;SHT30;53444;45.822;16.092;2022-09-20T03:12:30;8.83;85.99
66586;SHT30;53444;45.822;16.092;2022-09-20T03:15:09;8.87;85.48
66586;SHT30;53444;45.822;16.092;2022-09-20T03:17:46;8.69;85.24
66586;SHT30;53444;45.822;16.092;2022-09-20T03:20:23;8.65;86.12
66586;SHT30;53444;45.822;16.092;2022-09-20T03:22:59;8.73;86.13
66586;SHT30;53444;45.822;16.092;2022-09-20T03:25:38;8.65;87.02
66586;SHT30;53444;45.822;16.092;2022-09-20T03:28:21;8.52;87.58
66586;SHT30;53444;45.822;16.092;2022-09-20T03:30:59;8.52;87.05
66586;SHT30;53444;45.822;16.092;2022-09-20T03:33:39;8.62;86.47
66586;SHT30;53444;45.822;16.092;2022-09-20T03:36:24;8.45;87.03
66586;SHT30;53444;45.822;16.092;2022-09-20T03:39:09;8.00;88.53
66586;SHT30;53444;45.822;16.092;2022-09-20T03:41:51;7.70;89.57
66586;SHT30;53444;45.822;16.092;2022-09-20T03:44:35;7.89;89.35
66586;SHT30;53444;45.822;16.092;2022-09-20T03:47:17;8.05;88.68
66586;SHT30;53444;45.822;16.092;2022-09-20T03:50:02;8.18;88.37
66586;SHT30;53444;45.822;16.092;2022-09-20T03:52:44;8.25;88.05
66586;SHT30;53444;45.822;16.092;2022-09-20T03:58:24;7.79;88.56
66586;SHT30;53444;45.822;16.092;2022-09-20T04:01:12;7.76;89.14
66586;SHT30;53444;45.822;16.092;2022-09-20T04:03:45;7.69;89.16
66586;SHT30;53444;45.822;16.092;2022-09-20T04:06:33;7.79;89.36
66586;SHT30;53444;45.822;16.092;2022-09-20T04:09:45;7.81;90.05
66586;SHT30;53444;45.822;16.092;2022-09-20T04:12:24;7.94;90.24
66586;SHT30;53444;45.822;16.092;2022-09-20T04:14:59;8.07;89.43
66586;SHT30;53444;45.822;16.092;2022-09-20T04:17:37;8.12;89.04
66586;SHT30;53444;45.822;16.092;2022-09-20T04:20:16;8.15;88.74
66586;SHT30;53444;45.822;16.092;2022-09-20T04:22:46;8.11;88.95
66586;SHT30;53444;45.822;16.092;2022-09-20T04:25:21;8.11;88.80
66586;SHT30;53444;45.822;16.092;2022-09-20T04:27:51;8.10;88.76
66586;SHT30;53444;45.822;16.092;2022-09-20T04:30:22;8.11;88.72
66586;SHT30;53444;45.822;16.092;2022-09-20T04:32:58;8.15;88.92
66586;SHT30;53444;45.822;16.092;2022-09-20T04:35:37;8.12;88.40
66586;SHT30;53444;45.822;16.092;2022-09-20T04:38:26;8.11;88.15
66586;SHT30;53444;45.822;16.092;2022-09-20T04:41:32;7.93;88.65
66586;SHT30;53444;45.822;16.092;2022-09-20T04:47:30;8.04;87.93
66586;SHT30;53444;45.822;16.092;2022-09-20T04:50:22;8.07;87.78
66586;SHT30;53444;45.822;16.092;2022-09-20T04:55:50;8.04;87.82
66586;SHT30;53444;45.822;16.092;2022-09-20T04:58:35;8.02;87.83
66586;SHT30;53444;45.822;16.092;2022-09-20T05:01:48;8.04;87.78
66586;SHT30;53444;45.822;16.092;2022-09-20T05:04:54;8.00;88.37
66586;SHT30;53444;45.822;16.092;2022-09-20T05:10:59;8.10;87.94
66586;SHT30;53444;45.822;16.092;2022-09-20T05:13:40;8.12;87.43
66586;SHT30;53444;45.822;16.092;2022-09-20T05:16:19;8.10;87.43
66586;SHT30;53444;45.822;16.092;2022-09-20T05:19:06;8.10;87.51
66586;SHT30;53444;45.822;16.092;2022-09-20T05:21:57;8.18;87.19
66586;SHT30;53444;45.822;16.092;2022-09-20T05:25:02;8.24;87.18
66586;SHT30;53444;45.822;16.092;2022-09-20T05:27:39;8.30;87.12
66586;SHT30;53444;45.822;16.092;2022-09-20T05:30:18;8.31;87.27
66586;SHT30;53444;45.822;16.092;2022-09-20T05:32:53;8.34;87.06
66586;SHT30;53444;45.822;16.092;2022-09-20T05:35:27;8.38;86.90
66586;SHT30;53444;45.822;16.092;2022-09-20T05:38:03;8.46;86.70
66586;SHT30;53444;45.822;16.092;2022-09-20T05:40:36;8.58;86.77
66586;SHT30;53444;45.822;16.092;2022-09-20T05:43:09;8.66;86.80
66586;SHT30;53444;45.822;16.092;2022-09-20T05:46:02;8.71;86.81
66586;SHT30;53444;45.822;16.092;2022-09-20T05:48:37;8.77;86.57
66586;SHT30;53444;45.822;16.092;2022-09-20T05:51:10;8.79;86.44
66586;SHT30;53444;45.822;16.092;2022-09-20T05:56:37;8.84;86.39
66586;SHT30;53444;45.822;16.092;2022-09-20T05:59:27;8.92;86.49
66586;SHT30;53444;45.822;16.092;2022-09-20T06:02:17;9.02;86.02
66586;SHT30;53444;45.822;16.092;2022-09-20T06:04:53;9.04;85.78
66586;SHT30;53444;45.822;16.092;2022-09-20T06:07:31;9.17;86.03
66586;SHT30;53444;45.822;16.092;2022-09-20T06:10:27;9.35;85.53
66586;SHT30;53444;45.822;16.092;2022-09-20T06:13:02;9.38;85.84
66586;SHT30;53444;45.822;16.092;2022-09-20T06:15:43;9.45;86.25
66586;SHT30;53444;45.822;16.092;2022-09-20T06:18:21;9.45;86.82
66586;SHT30;53444;45.822;16.092;2022-09-20T06:20:56;9.19;87.77
66586;SHT30;53444;45.822;16.092;2022-09-20T06:23:25;9.40;87.93
66586;SHT30;53444;45.822;16.092;2022-09-20T06:25:54;9.52;87.55
66586;SHT30;53444;45.822;16.092;2022-09-20T06:28:24;9.61;87.39
66586;SHT30;53444;45.822;16.092;2022-09-20T06:30:53;9.40;88.46
66586;SHT30;53444;45.822;16.092;2022-09-20T06:33:22;9.62;88.06
66586;SHT30;53444;45.822;16.092;2022-09-20T06:35:52;9.70;87.93
66586;SHT30;53444;45.822;16.092;2022-09-20T06:38:36;9.70;87.91
66586;SHT30;53444;45.822;16.092;2022-09-20T06:41:21;8.69;91.51
66586;SHT30;53444;45.822;16.092;2022-09-20T06:43:55;8.30;94.31
66586;SHT30;53444;45.822;16.092;2022-09-20T06:46:23;8.61;93.53
66586;SHT30;53444;45.822;16.092;2022-09-20T06:48:51;8.79;92.89
66586;SHT30;53444;45.822;16.092;2022-09-20T06:51:20;8.72;93.39
66586;SHT30;53444;45.822;16.092;2022-09-20T06:53:47;8.83;93.17
66586;SHT30;53444;45.822;16.092;2022-09-20T06:56:16;8.94;93.08
66586;SHT30;53444;45.822;16.092;2022-09-20T06:58:44;8.96;93.03
66586;SHT30;53444;45.822;16.092;2022-09-20T07:01:10;9.31;91.51
66586;SHT30;53444;45.822;16.092;2022-09-20T07:03:38;9.52;91.20
66586;SHT30;53444;45.822;16.092;2022-09-20T07:06:06;9.51;90.44
66586;SHT30;53444;45.822;16.092;2022-09-20T07:08:33;9.43;91.14
66586;SHT30;53444;45.822;16.092;2022-09-20T07:11:04;9.77;90.78
66586;SHT30;53444;45.822;16.092;2022-09-20T07:13:32;10.03;90.53
66586;SHT30;53444;45.822;16.092;2022-09-20T07:16:00;10.30;89.74
66586;SHT30;53444;45.822;16.092;2022-09-20T07:18:27;10.57;88.46
66586;SHT30;53444;45.822;16.092;2022-09-20T07:20:55;10.74;88.17
66586;SHT30;53444;45.822;16.092;2022-09-20T07:23:24;10.80;88.02
66586;SHT30;53444;45.822;16.092;2022-09-20T07:25:51;10.90;87.81
66586;SHT30;53444;45.822;16.092;2022-09-20T07:28:18;11.17;86.58
66586;SHT30;53444;45.822;16.092;2022-09-20T07:30:45;11.42;86.10
66586;SHT30;53444;45.822;16.092;2022-09-20T07:33:12;11.35;86.61
66586;SHT30;53444;45.822;16.092;2022-09-20T07:35:46;11.56;86.04
66586;SHT30;53444;45.822;16.092;2022-09-20T07:38:14;11.31;86.06
66586;SHT30;53444;45.822;16.092;2022-09-20T07:40:43;10.68;88.31
66586;SHT30;53444;45.822;16.092;2022-09-20T07:43:13;10.43;89.18
66586;SHT30;53444;45.822;16.092;2022-09-20T07:45:40;10.45;89.72
66586;SHT30;53444;45.822;16.092;2022-09-20T07:48:06;10.53;89.44
66586;SHT30;53444;45.822;16.092;2022-09-20T07:50:34;10.67;90.11
66586;SHT30;53444;45.822;16.092;2022-09-20T07:53:01;11.01;89.10
66586;SHT30;53444;45.822;16.092;2022-09-20T07:55:29;11.22;88.03
66586;SHT30;53444;45.822;16.092;2022-09-20T07:57:57;11.43;87.62
66586;SHT30;53444;45.822;16.092;2022-09-20T08:00:24;11.42;86.96
66586;SHT30;53444;45.822;16.092;2022-09-20T08:02:57;11.72;86.55
66586;SHT30;53444;45.822;16.092;2022-09-20T08:05:24;11.90;85.20
66586;SHT30;53444;45.822;16.092;2022-09-20T08:07:51;11.96;85.55
66586;SHT30;53444;45.822;16.092;2022-09-20T08:10:18;11.58;85.36
66586;SHT30;53444;45.822;16.092;2022-09-20T08:12:45;10.87;89.05
66586;SHT30;53444;45.822;16.092;2022-09-20T08:15:13;10.85;89.63
66586;SHT30;53444;45.822;16.092;2022-09-20T08:17:41;10.76;90.44
66586;SHT30;53444;45.822;16.092;2022-09-20T08:20:08;11.27;89.13
66586;SHT30;53444;45.822;16.092;2022-09-20T08:22:35;11.70;86.84
66586;SHT30;53444;45.822;16.092;2022-09-20T08:25:04;11.97;85.35
66586;SHT30;53444;45.822;16.092;2022-09-20T08:27:31;12.27;84.87
66586;SHT30;53444;45.822;16.092;2022-09-20T08:29:58;12.36;84.59
66586;SHT30;53444;45.822;16.092;2022-09-20T08:32:26;12.42;84.10
66586;SHT30;53444;45.822;16.092;2022-09-20T08:34:53;12.60;83.77
66586;SHT30;53444;45.822;16.092;2022-09-20T08:37:20;12.92;82.57
66586;SHT30;53444;45.822;16.092;2022-09-20T08:39:46;13.09;81.92
66586;SHT30;53444;45.822;16.092;2022-09-20T08:42:20;13.06;82.80
66586;SHT30;53444;45.822;16.092;2022-09-20T08:44:52;12.88;82.98
66586;SHT30;53444;45.822;16.092;2022-09-20T08:47:23;13.11;82.74
66586;SHT30;53444;45.822;16.092;2022-09-20T08:49:52;13.32;81.65
66586;SHT30;53444;45.822;16.092;2022-09-20T08:52:26;13.24;82.12
66586;SHT30;53444;45.822;16.092;2022-09-20T08:54:55;13.32;81.28
66586;SHT30;53444;45.822;16.092;2022-09-20T08:57:24;13.59;81.96
66586;SHT30;53444;45.822;16.092;2022-09-20T08:59:53;13.64;81.25
66586;SHT30;53444;45.822;16.092;2022-09-20T09:02:20;13.70;81.07
66586;SHT30;53444;45.822;16.092;2022-09-20T09:04:48;13.78;80.46
66586;SHT30;53444;45.822;16.092;2022-09-20T09:07:19;13.83;80.53
66586;SHT30;53444;45.822;16.092;2022-09-20T09:09:49;14.01;80.62
66586;SHT30;53444;45.822;16.092;2022-09-20T09:12:20;14.11;79.41
66586;SHT30;53444;45.822;16.092;2022-09-20T09:14:48;14.13;79.81
66586;SHT30;53444;45.822;16.092;2022-09-20T09:17:22;14.22;79.50
66586;SHT30;53444;45.822;16.092;2022-09-20T09:19:50;13.77;81.65
66586;SHT30;53444;45.822;16.092;2022-09-20T09:22:22;13.94;81.28
66586;SHT30;53444;45.822;16.092;2022-09-20T09:25:24;14.44;79.30
66586;SHT30;53444;45.822;16.092;2022-09-20T09:27:57;14.66;79.13
66586;SHT30;53444;45.822;16.092;2022-09-20T09:30:27;14.71;78.45
66586;SHT30;53444;45.822;16.092;2022-09-20T09:33:22;14.83;77.76
66586;SHT30;53444;45.822;16.092;2022-09-20T09:36:04;15.14;76.89
66586;SHT30;53444;45.822;16.092;2022-09-20T09:38:34;15.41;76.62
66586;SHT30;53444;45.822;16.092;2022-09-20T09:41:03;15.65;76.22
66586;SHT30;53444;45.822;16.092;2022-09-20T09:43:32;15.86;75.10
66586;SHT30;53444;45.822;16.092;2022-09-20T09:46:16;16.25;73.84
66586;SHT30;53444;45.822;16.092;2022-09-20T09:48:45;16.42;72.59
66586;SHT30;53444;45.822;16.092;2022-09-20T09:51:16;16.66;72.76
66586;SHT30;53444;45.822;16.092;2022-09-20T09:53:45;16.37;70.65
66586;SHT30;53444;45.822;16.092;2022-09-20T09:56:27;15.89;70.76
66586;SHT30;53444;45.822;16.092;2022-09-20T10:01:52;16.61;68.43
66586;SHT30;53444;45.822;16.092;2022-09-20T10:04:25;16.97;67.54
66586;SHT30;53444;45.822;16.092;2022-09-20T10:06:58;16.46;66.29
66586;SHT30;53444;45.822;16.092;2022-09-20T10:09:39;16.81;65.22
66586;SHT30;53444;45.822;16.092;2022-09-20T10:12:21;16.76;66.05
66586;SHT30;53444;45.822;16.092;2022-09-20T10:15:01;17.22;64.99
66586;SHT30;53444;45.822;16.092;2022-09-20T10:17:40;17.12;63.22
66586;SHT30;53444;45.822;16.092;2022-09-20T10:20:26;17.39;62.22
66586;SHT30;53444;45.822;16.092;2022-09-20T10:23:05;18.02;61.00
66586;SHT30;53444;45.822;16.092;2022-09-20T10:25:40;18.23;60.66
66586;SHT30;53444;45.822;16.092;2022-09-20T10:28:22;18.30;58.50
66586;SHT30;53444;45.822;16.092;2022-09-20T10:31:00;18.58;57.65
66586;SHT30;53444;45.822;16.092;2022-09-20T10:33:36;19.18;55.42
66586;SHT30;53444;45.822;16.092;2022-09-20T10:36:20;19.63;57.35
66586;SHT30;53444;45.822;16.092;2022-09-20T10:38:55;19.91;55.50
66586;SHT30;53444;45.822;16.092;2022-09-20T10:41:37;20.25;53.71
66586;SHT30;53444;45.822;16.092;2022-09-20T10:44:35;20.05;52.63
66586;SHT30;53444;45.822;16.092;2022-09-20T10:47:11;20.45;52.78
66586;SHT30;53444;45.822;16.092;2022-09-20T10:49:41;20.25;52.96
66586;SHT30;53444;45.822;16.092;2022-09-20T10:52:23;19.84;53.21
66586;SHT30;53444;45.822;16.092;2022-09-20T10:55:03;19.97;50.57
66586;SHT30;53444;45.822;16.092;2022-09-20T10:57:53;19.71;51.49
66586;SHT30;53444;45.822;16.092;2022-09-20T11:00:24;19.85;50.25
66586;SHT30;53444;45.822;16.092;2022-09-20T11:03:07;20.77;48.47
66586;SHT30;53444;45.822;16.092;2022-09-20T11:05:45;21.10;47.14
66586;SHT30;53444;45.822;16.092;2022-09-20T11:08:21;21.55;45.21
66586;SHT30;53444;45.822;16.092;2022-09-20T11:10:53;21.89;43.38
66586;SHT30;53444;45.822;16.092;2022-09-20T11:13:25;20.69;42.70
66586;SHT30;53444;45.822;16.092;2022-09-20T11:15:57;20.53;45.27
66586;SHT30;53444;45.822;16.092;2022-09-20T11:18:29;20.48;45.96
66586;SHT30;53444;45.822;16.092;2022-09-20T11:21:04;20.45;43.66
66586;SHT30;53444;45.822;16.092;2022-09-20T11:23:43;20.83;43.44
66586;SHT30;53444;45.822;16.092;2022-09-20T11:26:15;20.86;42.33
66586;SHT30;53444;45.822;16.092;2022-09-20T11:28:47;21.69;42.63
66586;SHT30;53444;45.822;16.092;2022-09-20T11:31:18;22.56;40.81
66586;SHT30;53444;45.822;16.092;2022-09-20T11:33:50;21.87;39.68
66586;SHT30;53444;45.822;16.092;2022-09-20T11:36:26;22.05;40.07
66586;SHT30;53444;45.822;16.092;2022-09-20T11:38:57;21.95;39.86
66586;SHT30;53444;45.822;16.092;2022-09-20T11:41:28;22.43;40.75
66586;SHT30;53444;45.822;16.092;2022-09-20T11:43:59;21.95;39.44
66586;SHT30;53444;45.822;16.092;2022-09-20T11:46:34;20.99;40.47
66586;SHT30;53444;45.822;16.092;2022-09-20T11:49:09;22.55;40.86
66586;SHT30;53444;45.822;16.092;2022-09-20T11:52:14;21.97;41.60
66586;SHT30;53444;45.822;16.092;2022-09-20T11:55:10;21.57;42.57
66586;SHT30;53444;45.822;16.092;2022-09-20T11:57:41;21.57;41.92
66586;SHT30;53444;45.822;16.092;2022-09-20T12:00:10;21.40;42.31
66586;SHT30;53444;45.822;16.092;2022-09-20T12:02:43;21.38;39.31
66586;SHT30;53444;45.822;16.092;2022-09-20T12:05:25;21.09;41.35
66586;SHT30;53444;45.822;16.092;2022-09-20T12:07:53;20.35;46.18
66586;SHT30;53444;45.822;16.092;2022-09-20T12:10:22;19.66;48.09
66586;SHT30;53444;45.822;16.092;2022-09-20T12:12:55;19.64;49.03
66586;SHT30;53444;45.822;16.092;2022-09-20T12:15:27;19.71;48.31
66586;SHT30;53444;45.822;16.092;2022-09-20T12:18:13;19.47;49.94
66586;SHT30;53444;45.822;16.092;2022-09-20T12:21:01;19.35;49.59
66586;SHT30;53444;45.822;16.092;2022-09-20T12:26:43;19.53;50.63
66586;SHT30;53444;45.822;16.092;2022-09-20T12:32:39;21.43;45.81
66586;SHT30;53444;45.822;16.092;2022-09-20T12:38:44;22.02;44.33
66586;SHT30;53444;45.822;16.092;2022-09-20T12:41:16;22.56;42.81
66586;SHT30;53444;45.822;16.092;2022-09-20T12:43:56;22.87;42.31
66586;SHT30;53444;45.822;16.092;2022-09-20T12:46:36;23.52;41.81
66586;SHT30;53444;45.822;16.092;2022-09-20T12:49:33;23.86;41.13
66586;SHT30;53444;45.822;16.092;2022-09-20T12:52:52;24.32;39.66
66586;SHT30;53444;45.822;16.092;2022-09-20T12:55:36;24.50;39.05
66586;SHT30;53444;45.822;16.092;2022-09-20T12:58:17;24.41;39.64
66586;SHT30;53444;45.822;16.092;2022-09-20T13:00:46;24.49;39.11
66586;SHT30;53444;45.822;16.092;2022-09-20T13:03:27;24.16;40.33
66586;SHT30;53444;45.822;16.092;2022-09-20T13:06:27;24.30;39.43
66586;SHT30;53444;45.822;16.092;2022-09-20T13:09:04;24.43;39.31
66586;SHT30;53444;45.822;16.092;2022-09-20T13:11:37;24.84;38.35
66586;SHT30;53444;45.822;16.092;2022-09-20T13:14:09;24.65;39.46
66586;SHT30;53444;45.822;16.092;2022-09-20T13:16:45;24.74;39.70
66586;SHT30;53444;45.822;16.092;2022-09-20T13:19:15;23.44;40.96
66586;SHT30;53444;45.822;16.092;2022-09-20T13:21:51;23.96;40.38
66586;SHT30;53444;45.822;16.092;2022-09-20T13:24:19;23.81;39.78
66586;SHT30;53444;45.822;16.092;2022-09-20T13:26:47;23.37;40.67
66586;SHT30;53444;45.822;16.092;2022-09-20T13:29:21;23.10;39.90
66586;SHT30;53444;45.822;16.092;2022-09-20T13:31:49;22.99;40.32
66586;SHT30;53444;45.822;16.092;2022-09-20T13:34:20;23.45;40.20
66586;SHT30;53444;45.822;16.092;2022-09-20T13:36:51;24.08;38.90
66586;SHT30;53444;45.822;16.092;2022-09-20T13:39:27;24.03;38.25
66586;SHT30;53444;45.822;16.092;2022-09-20T13:41:59;24.41;37.68
66586;SHT30;53444;45.822;16.092;2022-09-20T13:44:29;22.60;40.04
66586;SHT30;53444;45.822;16.092;2022-09-20T13:46:57;21.84;41.24
66586;SHT30;53444;45.822;16.092;2022-09-20T13:49:29;22.08;41.84
66586;SHT30;53444;45.822;16.092;2022-09-20T13:51:57;23.68;39.59
66586;SHT30;53444;45.822;16.092;2022-09-20T13:54:26;23.95;38.66
66586;SHT30;53444;45.822;16.092;2022-09-20T13:56:55;23.85;38.04
66586;SHT30;53444;45.822;16.092;2022-09-20T13:59:31;24.50;37.03
66586;SHT30;53444;45.822;16.092;2022-09-20T14:01:58;24.61;37.03
66586;SHT30;53444;45.822;16.092;2022-09-20T14:04:27;24.06;37.04
66586;SHT30;53444;45.822;16.092;2022-09-20T14:06:57;23.96;36.86
66586;SHT30;53444;45.822;16.092;2022-09-20T14:09:27;23.03;39.36
66586;SHT30;53444;45.822;16.092;2022-09-20T14:11:55;22.80;39.00
66586;SHT30;53444;45.822;16.092;2022-09-20T14:14:25;24.57;35.81
66586;SHT30;53444;45.822;16.092;2022-09-20T14:16:56;23.75;36.83
66586;SHT30;53444;45.822;16.092;2022-09-20T14:19:27;23.27;37.80
66586;SHT30;53444;45.822;16.092;2022-09-20T14:21:57;22.80;38.60
66586;SHT30;53444;45.822;16.092;2022-09-20T14:24:29;21.92;40.82
66586;SHT30;53444;45.822;16.092;2022-09-20T14:27:11;21.62;41.53
66586;SHT30;53444;45.822;16.092;2022-09-20T14:29:41;21.31;42.03
66586;SHT30;53444;45.822;16.092;2022-09-20T14:35:13;23.83;37.51
66586;SHT30;53444;45.822;16.092;2022-09-20T14:37:44;25.28;34.36
66586;SHT30;53444;45.822;16.092;2022-09-20T14:40:21;25.58;34.48
66586;SHT30;53444;45.822;16.092;2022-09-20T14:42:51;26.30;33.20
66586;SHT30;53444;45.822;16.092;2022-09-20T14:45:28;24.94;34.45
66586;SHT30;53444;45.822;16.092;2022-09-20T14:47:58;23.00;38.05
66586;SHT30;53444;45.822;16.092;2022-09-20T14:50:29;22.10;40.05
66586;SHT30;53444;45.822;16.092;2022-09-20T14:53:19;21.23;42.11
66586;SHT30;53444;45.822;16.092;2022-09-20T14:55:58;20.92;43.77
66586;SHT30;53444;45.822;16.092;2022-09-20T14:58:25;20.51;43.53
66586;SHT30;53444;45.822;16.092;2022-09-20T15:00:57;19.94;44.53
66586;SHT30;53444;45.822;16.092;2022-09-20T15:03:29;19.53;44.69
66586;SHT30;53444;45.822;16.092;2022-09-20T15:05:57;19.33;44.78
66586;SHT30;53444;45.822;16.092;2022-09-20T15:08:26;18.89;45.99
66586;SHT30;53444;45.822;16.092;2022-09-20T15:10:53;18.71;47.27
66586;SHT30;53444;45.822;16.092;2022-09-20T15:13:20;18.72;47.25
66586;SHT30;53444;45.822;16.092;2022-09-20T15:15:49;18.68;48.53
66586;SHT30;53444;45.822;16.092;2022-09-20T15:18:20;18.50;50.04
66586;SHT30;53444;45.822;16.092;2022-09-20T15:20:48;18.33;50.27
66586;SHT30;53444;45.822;16.092;2022-09-20T15:23:15;18.16;52.17
66586;SHT30;53444;45.822;16.092;2022-09-20T15:25:49;17.89;50.86
66586;SHT30;53444;45.822;16.092;2022-09-20T15:28:16;17.87;50.48
66586;SHT30;53444;45.822;16.092;2022-09-20T15:30:43;18.02;50.98
66586;SHT30;53444;45.822;16.092;2022-09-20T15:33:17;17.93;51.96
66586;SHT30;53444;45.822;16.092;2022-09-20T15:35:46;18.06;52.65
66586;SHT30;53444;45.822;16.092;2022-09-20T15:38:15;18.00;51.62
66586;SHT30;53444;45.822;16.092;2022-09-20T15:40:48;18.10;53.02
66586;SHT30;53444;45.822;16.092;2022-09-20T15:43:17;17.90;52.93
66586;SHT30;53444;45.822;16.092;2022-09-20T15:45:47;17.87;53.78
66586;SHT30;53444;45.822;16.092;2022-09-20T15:48:15;17.73;54.83
66586;SHT30;53444;45.822;16.092;2022-09-20T15:50:58;17.52;55.20
66586;SHT30;53444;45.822;16.092;2022-09-20T15:56:44;17.52;56.60
66586;SHT30;53444;45.822;16.092;2022-09-20T15:59:11;17.55;55.81
66586;SHT30;53444;45.822;16.092;2022-09-20T16:02:02;17.53;55.22
66586;SHT30;53444;45.822;16.092;2022-09-20T16:04:40;17.55;55.38
66586;SHT30;53444;45.822;16.092;2022-09-20T16:07:23;17.53;55.90
66586;SHT30;53444;45.822;16.092;2022-09-20T16:09:55;17.43;56.36
66586;SHT30;53444;45.822;16.092;2022-09-20T16:12:26;17.31;57.10
66586;SHT30;53444;45.822;16.092;2022-09-20T16:15:13;17.24;56.76
66586;SHT30;53444;45.822;16.092;2022-09-20T16:17:47;17.14;55.43
66586;SHT30;53444;45.822;16.092;2022-09-20T16:20:31;17.10;55.26
66586;SHT30;53444;45.822;16.092;2022-09-20T16:23:16;17.07;54.89
66586;SHT30;53444;45.822;16.092;2022-09-20T16:25:44;17.14;54.22
66586;SHT30;53444;45.822;16.092;2022-09-20T16:28:20;17.07;54.31
66586;SHT30;53444;45.822;16.092;2022-09-20T16:30:56;17.00;53.60
66586;SHT30;53444;45.822;16.092;2022-09-20T16:33:38;17.04;54.11
66586;SHT30;53444;45.822;16.092;2022-09-20T16:36:10;16.84;54.60
66586;SHT30;53444;45.822;16.092;2022-09-20T16:38:38;16.49;54.84
66586;SHT30;53444;45.822;16.092;2022-09-20T16:41:10;16.36;55.61
66586;SHT30;53444;45.822;16.092;2022-09-20T16:44:08;16.08;57.11
66586;SHT30;53444;45.822;16.092;2022-09-20T16:46:38;15.86;59.73